sensor_id;sensor_type;location;lat;lon;timestamp;temperature;humidity
10901;DHT22;5503;53.208;10.392;2023-07-24T00:00:20;20.70;1.00
10901;DHT22;5503;53.208;10.392;2023-07-24T00:02:47;20.60;1.00
10901;DHT22;5503;53.208;10.392;2023-07-24T00:05:14;20.60;1.00
10901;DHT22;5503;53.208;10.392;2023-07-24T00:07:41;20.70;1.00
10901;DHT22;5503;53.208;10.392;2023-07-24T00:10:08;20.60;1.00
10901;DHT22;5503;53.208;10.392;2023-07-24T00:12:35;20.60;1.00
10901;DHT22;5503;53.208;10.392;2023-07-24T00:15:03;20.60;1.00
10901;DHT22;5503;53.208;10.392;2023-07-24T00:17:31;20.60;1.00
10901;DHT22;5503;53.208;10.392;2023-07-24T00:19:58;20.60;1.00
10901;DHT22;5503;53.208;10.392;2023-07-24T00:22:26;20.70;1.00
10901;DHT22;5503;53.208;10.392;2023-07-24T00:24:53;20.70;1.00
10901;DHT22;5503;53.208;10.392;2023-07-24T00:27:19;20.70;1.00
10901;DHT22;5503;53.208;10.392;2023-07-24T00:29:46;20.70;1.00
10901;DHT22;5503;53.208;10.392;2023-07-24T00:32:13;20.70;1.00
10901;DHT22;5503;53.208;10.392;2023-07-24T00:34:42;20.70;1.00
10901;DHT22;5503;53.208;10.392;2023-07-24T00:37:09;20.80;1.00
10901;DHT22;5503;53.208;10.392;2023-07-24T00:39:36;20.70;1.00
10901;DHT22;5503;53.208;10.392;2023-07-24T00:42:03;20.80;1.00
10901;DHT22;5503;53.208;10.392;2023-07-24T00:44:30;20.80;1.00
10901;DHT22;5503;53.208;10.392;2023-07-24T00:46:57;20.90;1.00
10901;DHT22;5503;53.208;10.392;2023-07-24T00:49:24;20.90;1.00
10901;DHT22;5503;53.208;10.392;2023-07-24T00:51:53;20.80;1.00
10901;DHT22;5503;53.208;10.392;2023-07-24T00:54:22;20.90;1.00
10901;DHT22;5503;53.208;10.392;2023-07-24T00:56:49;21.00;1.00
10901;DHT22;5503;53.208;10.392;2023-07-24T00:59:16;21.00;1.00
10901;DHT22;5503;53.208;10.392;2023-07-24T01:01:44;21.00;1.00
10901;DHT22;5503;53.208;10.392;2023-07-24T01:04:11;21.00;1.00
10901;DHT22;5503;53.208;10.392;2023-07-24T01:06:38;20.90;1.00
10901;DHT22;5503;53.208;10.392;2023-07-24T01:09:07;18.60;1.00
10901;DHT22;5503;53.208;10.392;2023-07-24T01:11:37;20.70;1.00
10901;DHT22;5503;53.208;10.392;2023-07-24T01:14:13;20.90;1.00
10901;DHT22;5503;53.208;10.392;2023-07-24T01:16:43;21.00;1.00
10901;DHT22;5503;53.208;10.392;2023-07-24T01:19:13;20.90;1.00
10901;DHT22;5503;53.208;10.392;2023-07-24T01:21:55;20.80;1.00
10901;DHT22;5503;53.208;10.392;2023-07-24T01:24:33;20.80;1.00
10901;DHT22;5503;53.208;10.392;2023-07-24T01:27:04;20.80;1.00
10901;DHT22;5503;53.208;10.392;2023-07-24T01:29:33;20.80;1.00
10901;DHT22;5503;53.208;10.392;2023-07-24T01:32:00;20.80;1.00
10901;DHT22;5503;53.208;10.392;2023-07-24T01:34:27;20.90;1.00
10901;DHT22;5503;53.208;10.392;2023-07-24T01:36:54;20.90;1.00
10901;DHT22;5503;53.208;10.392;2023-07-24T01:39:21;20.90;1.00
10901;DHT22;5503;53.208;10.392;2023-07-24T01:41:49;20.80;1.00
10901;DHT22;5503;53.208;10.392;2023-07-24T01:44:18;20.90;1.00
10901;DHT22;5503;53.208;10.392;2023-07-24T01:46:45;21.00;1.00
10901;DHT22;5503;53.208;10.392;2023-07-24T01:49:12;21.00;1.00
10901;DHT22;5503;53.208;10.392;2023-07-24T01:51:39;21.10;1.00
10901;DHT22;5503;53.208;10.392;2023-07-24T01:54:06;21.10;1.00
10901;DHT22;5503;53.208;10.392;2023-07-24T01:56:35;21.10;1.00
10901;DHT22;5503;53.208;10.392;2023-07-24T01:59:02;21.10;1.00
10901;DHT22;5503;53.208;10.392;2023-07-24T02:01:30;21.10;1.00
10901;DHT22;5503;53.208;10.392;2023-07-24T02:03:57;21.10;1.00
10901;DHT22;5503;53.208;10.392;2023-07-24T02:06:24;21.00;1.00
10901;DHT22;5503;53.208;10.392;2023-07-24T02:08:51;21.00;1.00
10901;DHT22;5503;53.208;10.392;2023-07-24T02:13:48;21.00;1.00
10901;DHT22;5503;53.208;10.392;2023-07-24T02:16:15;22.20;1.00
10901;DHT22;5503;53.208;10.392;2023-07-24T02:18:43;20.90;1.00
10901;DHT22;5503;53.208;10.392;2023-07-24T02:21:10;21.00;1.00
10901;DHT22;5503;53.208;10.392;2023-07-24T02:23:37;21.00;1.00
10901;DHT22;5503;53.208;10.392;2023-07-24T02:26:04;24.50;1.00
10901;DHT22;5503;53.208;10.392;2023-07-24T02:28:31;21.00;1.00
10901;DHT22;5503;53.208;10.392;2023-07-24T02:30:58;20.80;1.00
10901;DHT22;5503;53.208;10.392;2023-07-24T02:33:26;20.80;1.00
10901;DHT22;5503;53.208;10.392;2023-07-24T02:35:54;20.80;1.00
10901;DHT22;5503;53.208;10.392;2023-07-24T02:38:21;20.90;1.00
10901;DHT22;5503;53.208;10.392;2023-07-24T02:40:48;20.90;1.00
10901;DHT22;5503;53.208;10.392;2023-07-24T02:43:15;20.90;1.00
10901;DHT22;5503;53.208;10.392;2023-07-24T02:45:42;20.80;1.00
10901;DHT22;5503;53.208;10.392;2023-07-24T02:48:09;20.80;1.00
10901;DHT22;5503;53.208;10.392;2023-07-24T02:50:36;20.80;1.00
10901;DHT22;5503;53.208;10.392;2023-07-24T02:53:05;20.90;1.00
10901;DHT22;5503;53.208;10.392;2023-07-24T02:55:32;20.90;1.00
10901;DHT22;5503;53.208;10.392;2023-07-24T02:57:59;21.00;1.00
10901;DHT22;5503;53.208;10.392;2023-07-24T03:00:26;21.00;1.00
10901;DHT22;5503;53.208;10.392;2023-07-24T03:02:53;21.00;1.00
10901;DHT22;5503;53.208;10.392;2023-07-24T03:05:20;20.90;1.00
10901;DHT22;5503;53.208;10.392;2023-07-24T03:07:47;21.00;1.00
10901;DHT22;5503;53.208;10.392;2023-07-24T03:10:15;21.00;1.00
10901;DHT22;5503;53.208;10.392;2023-07-24T03:12:42;20.90;1.00
10901;DHT22;5503;53.208;10.392;2023-07-24T03:15:10;20.90;1.00
10901;DHT22;5503;53.208;10.392;2023-07-24T03:17:37;21.00;1.00
10901;DHT22;5503;53.208;10.392;2023-07-24T03:20:13;20.90;1.00
10901;DHT22;5503;53.208;10.392;2023-07-24T03:22:40;20.90;1.00
10901;DHT22;5503;53.208;10.392;2023-07-24T03:25:08;20.90;1.00
10901;DHT22;5503;53.208;10.392;2023-07-24T03:27:37;20.80;1.00
10901;DHT22;5503;53.208;10.392;2023-07-24T03:30:05;20.80;1.00
10901;DHT22;5503;53.208;10.392;2023-07-24T03:32:33;20.80;1.00
10901;DHT22;5503;53.208;10.392;2023-07-24T03:35:00;20.90;1.00
10901;DHT22;5503;53.208;10.392;2023-07-24T03:37:27;20.80;1.00
10901;DHT22;5503;53.208;10.392;2023-07-24T03:39:56;20.90;1.00
10901;DHT22;5503;53.208;10.392;2023-07-24T03:42:26;20.90;1.00
10901;DHT22;5503;53.208;10.392;2023-07-24T03:44:56;20.80;1.00
10901;DHT22;5503;53.208;10.392;2023-07-24T03:47:23;20.90;1.00
10901;DHT22;5503;53.208;10.392;2023-07-24T03:49:50;20.90;1.00
10901;DHT22;5503;53.208;10.392;2023-07-24T03:52:18;20.90;1.00
10901;DHT22;5503;53.208;10.392;2023-07-24T03:54:45;20.90;1.00
10901;DHT22;5503;53.208;10.392;2023-07-24T03:57:12;21.00;1.00
10901;DHT22;5503;53.208;10.392;2023-07-24T03:59:39;20.90;1.00
10901;DHT22;5503;53.208;10.392;2023-07-24T04:02:07;21.00;1.00
10901;DHT22;5503;53.208;10.392;2023-07-24T04:04:34;21.90;1.00
10901;DHT22;5503;53.208;10.392;2023-07-24T04:07:02;21.10;1.00
10901;DHT22;5503;53.208;10.392;2023-07-24T04:09:29;21.20;1.00
10901;DHT22;5503;53.208;10.392;2023-07-24T04:11:55;21.10;1.00
10901;DHT22;5503;53.208;10.392;2023-07-24T04:14:23;21.00;1.00
10901;DHT22;5503;53.208;10.392;2023-07-24T04:16:50;21.00;1.00
10901;DHT22;5503;53.208;10.392;2023-07-24T04:19:18;20.90;1.00
10901;DHT22;5503;53.208;10.392;2023-07-24T04:21:45;20.90;1.00
10901;DHT22;5503;53.208;10.392;2023-07-24T04:24:12;21.00;1.00
10901;DHT22;5503;53.208;10.392;2023-07-24T04:26:39;21.10;1.00
10901;DHT22;5503;53.208;10.392;2023-07-24T04:29:06;21.10;1.00
10901;DHT22;5503;53.208;10.392;2023-07-24T04:31:33;21.00;1.00
10901;DHT22;5503;53.208;10.392;2023-07-24T04:34:00;21.10;1.00
10901;DHT22;5503;53.208;10.392;2023-07-24T04:36:29;21.10;1.00
10901;DHT22;5503;53.208;10.392;2023-07-24T04:38:56;21.20;1.00
10901;DHT22;5503;53.208;10.392;2023-07-24T04:41:23;21.10;1.00
10901;DHT22;5503;53.208;10.392;2023-07-24T04:43:50;21.10;1.00
10901;DHT22;5503;53.208;10.392;2023-07-24T04:46:16;21.00;1.00
10901;DHT22;5503;53.208;10.392;2023-07-24T04:48:43;20.90;1.00
10901;DHT22;5503;53.208;10.392;2023-07-24T04:51:10;20.90;1.00
10901;DHT22;5503;53.208;10.392;2023-07-24T04:53:39;20.90;1.00
10901;DHT22;5503;53.208;10.392;2023-07-24T04:56:06;20.90;1.00
10901;DHT22;5503;53.208;10.392;2023-07-24T04:58:33;20.40;1.00
10901;DHT22;5503;53.208;10.392;2023-07-24T05:01:03;20.90;1.00
10901;DHT22;5503;53.208;10.392;2023-07-24T05:03:30;21.00;1.00
10901;DHT22;5503;53.208;10.392;2023-07-24T05:05:57;21.10;1.00
10901;DHT22;5503;53.208;10.392;2023-07-24T05:08:24;21.20;1.00
10901;DHT22;5503;53.208;10.392;2023-07-24T05:10:56;21.10;1.00
10901;DHT22;5503;53.208;10.392;2023-07-24T05:13:24;21.10;1.00
10901;DHT22;5503;53.208;10.392;2023-07-24T05:15:51;21.10;1.00
10901;DHT22;5503;53.208;10.392;2023-07-24T05:18:19;18.10;1.00
10901;DHT22;5503;53.208;10.392;2023-07-24T05:20:47;21.20;1.00
10901;DHT22;5503;53.208;10.392;2023-07-24T05:23:16;21.40;1.00
10901;DHT22;5503;53.208;10.392;2023-07-24T05:25:44;21.20;1.00
10901;DHT22;5503;53.208;10.392;2023-07-24T05:28:12;21.20;1.00
10901;DHT22;5503;53.208;10.392;2023-07-24T05:30:39;21.20;1.00
10901;DHT22;5503;53.208;10.392;2023-07-24T05:33:07;21.20;1.00
10901;DHT22;5503;53.208;10.392;2023-07-24T05:35:34;21.40;1.00
10901;DHT22;5503;53.208;10.392;2023-07-24T05:38:01;21.40;1.00
10901;DHT22;5503;53.208;10.392;2023-07-24T05:40:28;21.40;1.00
10901;DHT22;5503;53.208;10.392;2023-07-24T05:42:55;21.30;1.00
10901;DHT22;5503;53.208;10.392;2023-07-24T05:45:23;21.30;1.00
10901;DHT22;5503;53.208;10.392;2023-07-24T05:47:50;21.50;1.00
10901;DHT22;5503;53.208;10.392;2023-07-24T05:50:17;22.80;1.00
10901;DHT22;5503;53.208;10.392;2023-07-24T05:52:45;21.50;1.00
10901;DHT22;5503;53.208;10.392;2023-07-24T05:55:12;21.60;1.00
10901;DHT22;5503;53.208;10.392;2023-07-24T05:57:39;21.60;1.00
10901;DHT22;5503;53.208;10.392;2023-07-24T06:00:07;21.80;1.00
10901;DHT22;5503;53.208;10.392;2023-07-24T06:02:36;22.00;1.00
10901;DHT22;5503;53.208;10.392;2023-07-24T06:05:03;21.90;1.00
10901;DHT22;5503;53.208;10.392;2023-07-24T06:07:30;21.90;1.00
10901;DHT22;5503;53.208;10.392;2023-07-24T06:09:57;22.00;1.00
10901;DHT22;5503;53.208;10.392;2023-07-24T06:12:25;22.00;1.00
10901;DHT22;5503;53.208;10.392;2023-07-24T06:14:52;22.20;1.00
10901;DHT22;5503;53.208;10.392;2023-07-24T06:17:19;22.30;1.00
10901;DHT22;5503;53.208;10.392;2023-07-24T06:19:47;22.30;1.00
10901;DHT22;5503;53.208;10.392;2023-07-24T06:22:14;22.40;1.00
10901;DHT22;5503;53.208;10.392;2023-07-24T06:24:41;22.40;1.00
10901;DHT22;5503;53.208;10.392;2023-07-24T06:27:08;22.10;1.00
10901;DHT22;5503;53.208;10.392;2023-07-24T06:29:35;22.00;1.00
10901;DHT22;5503;53.208;10.392;2023-07-24T06:32:03;22.10;1.00
10901;DHT22;5503;53.208;10.392;2023-07-24T06:34:30;22.20;1.00
10901;DHT22;5503;53.208;10.392;2023-07-24T06:36:58;22.10;1.00
10901;DHT22;5503;53.208;10.392;2023-07-24T06:39:25;22.10;1.00
10901;DHT22;5503;53.208;10.392;2023-07-24T06:41:54;21.10;1.00
10901;DHT22;5503;53.208;10.392;2023-07-24T06:44:21;22.10;1.00
10901;DHT22;5503;53.208;10.392;2023-07-24T06:46:48;21.70;1.00
10901;DHT22;5503;53.208;10.392;2023-07-24T06:49:15;21.70;1.00
10901;DHT22;5503;53.208;10.392;2023-07-24T06:51:42;21.70;1.00
10901;DHT22;5503;53.208;10.392;2023-07-24T06:54:10;21.80;1.00
10901;DHT22;5503;53.208;10.392;2023-07-24T06:56:37;21.80;1.00
10901;DHT22;5503;53.208;10.392;2023-07-24T06:59:04;21.80;1.00
10901;DHT22;5503;53.208;10.392;2023-07-24T07:01:31;21.80;1.00
10901;DHT22;5503;53.208;10.392;2023-07-24T07:03:59;21.80;1.00
10901;DHT22;5503;53.208;10.392;2023-07-24T07:06:25;22.00;1.00
10901;DHT22;5503;53.208;10.392;2023-07-24T07:08:52;22.10;1.00
10901;DHT22;5503;53.208;10.392;2023-07-24T07:11:21;22.00;1.00
10901;DHT22;5503;53.208;10.392;2023-07-24T07:13:48;22.00;1.00
10901;DHT22;5503;53.208;10.392;2023-07-24T07:16:15;22.10;1.00
10901;DHT22;5503;53.208;10.392;2023-07-24T07:18:44;22.10;1.00
10901;DHT22;5503;53.208;10.392;2023-07-24T07:21:11;22.30;1.00
10901;DHT22;5503;53.208;10.392;2023-07-24T07:23:38;22.30;1.00
10901;DHT22;5503;53.208;10.392;2023-07-24T07:26:05;22.10;1.00
10901;DHT22;5503;53.208;10.392;2023-07-24T07:28:34;22.00;1.00
10901;DHT22;5503;53.208;10.392;2023-07-24T07:31:01;21.90;1.00
10901;DHT22;5503;53.208;10.392;2023-07-24T07:33:29;21.70;1.00
10901;DHT22;5503;53.208;10.392;2023-07-24T07:35:56;21.00;1.00
10901;DHT22;5503;53.208;10.392;2023-07-24T07:38:23;21.70;1.00
10901;DHT22;5503;53.208;10.392;2023-07-24T07:40:50;21.70;1.00
10901;DHT22;5503;53.208;10.392;2023-07-24T07:43:17;21.60;1.00
10901;DHT22;5503;53.208;10.392;2023-07-24T07:45:49;21.40;1.00
10901;DHT22;5503;53.208;10.392;2023-07-24T07:48:17;21.40;1.00
10901;DHT22;5503;53.208;10.392;2023-07-24T07:50:45;21.30;1.00
10901;DHT22;5503;53.208;10.392;2023-07-24T07:53:16;21.20;1.00
10901;DHT22;5503;53.208;10.392;2023-07-24T07:55:44;21.20;1.00
10901;DHT22;5503;53.208;10.392;2023-07-24T07:58:13;21.10;1.00
10901;DHT22;5503;53.208;10.392;2023-07-24T08:00:41;21.00;1.00
10901;DHT22;5503;53.208;10.392;2023-07-24T08:03:11;21.00;1.00
10901;DHT22;5503;53.208;10.392;2023-07-24T08:05:38;20.80;1.00
10901;DHT22;5503;53.208;10.392;2023-07-24T08:08:08;20.80;1.00
10901;DHT22;5503;53.208;10.392;2023-07-24T08:10:37;20.70;1.00
10901;DHT22;5503;53.208;10.392;2023-07-24T08:13:04;20.80;1.00
10901;DHT22;5503;53.208;10.392;2023-07-24T08:15:34;20.70;1.00
10901;DHT22;5503;53.208;10.392;2023-07-24T08:18:03;20.70;1.00
10901;DHT22;5503;53.208;10.392;2023-07-24T08:20:34;20.70;1.00
10901;DHT22;5503;53.208;10.392;2023-07-24T08:23:01;20.70;1.00
10901;DHT22;5503;53.208;10.392;2023-07-24T08:25:29;20.80;1.00
10901;DHT22;5503;53.208;10.392;2023-07-24T08:27:56;20.90;1.00
10901;DHT22;5503;53.208;10.392;2023-07-24T08:30:23;20.90;1.00
10901;DHT22;5503;53.208;10.392;2023-07-24T08:32:50;20.90;1.00
10901;DHT22;5503;53.208;10.392;2023-07-24T08:35:19;20.90;1.00
10901;DHT22;5503;53.208;10.392;2023-07-24T08:37:47;20.80;1.00
10901;DHT22;5503;53.208;10.392;2023-07-24T08:40:15;20.60;1.00
10901;DHT22;5503;53.208;10.392;2023-07-24T08:42:43;20.60;1.00
10901;DHT22;5503;53.208;10.392;2023-07-24T08:45:12;20.80;1.00
10901;DHT22;5503;53.208;10.392;2023-07-24T08:47:42;20.70;1.00
10901;DHT22;5503;53.208;10.392;2023-07-24T08:50:10;20.80;1.00
10901;DHT22;5503;53.208;10.392;2023-07-24T08:52:38;19.60;1.00
10901;DHT22;5503;53.208;10.392;2023-07-24T08:55:07;20.90;1.00
10901;DHT22;5503;53.208;10.392;2023-07-24T08:57:35;21.10;1.00
10901;DHT22;5503;53.208;10.392;2023-07-24T09:00:02;21.30;1.00
10901;DHT22;5503;53.208;10.392;2023-07-24T09:02:32;21.20;1.00
10901;DHT22;5503;53.208;10.392;2023-07-24T09:04:59;21.30;1.00
10901;DHT22;5503;53.208;10.392;2023-07-24T09:07:26;21.10;1.00
10901;DHT22;5503;53.208;10.392;2023-07-24T09:09:53;21.00;1.00
10901;DHT22;5503;53.208;10.392;2023-07-24T09:12:23;21.10;1.00
10901;DHT22;5503;53.208;10.392;2023-07-24T09:15:01;21.10;1.00
10901;DHT22;5503;53.208;10.392;2023-07-24T09:17:29;21.20;1.00
10901;DHT22;5503;53.208;10.392;2023-07-24T09:19:57;21.30;1.00
10901;DHT22;5503;53.208;10.392;2023-07-24T09:22:24;18.80;1.00
10901;DHT22;5503;53.208;10.392;2023-07-24T09:24:53;21.70;1.00
10901;DHT22;5503;53.208;10.392;2023-07-24T09:27:24;21.90;1.00
10901;DHT22;5503;53.208;10.392;2023-07-24T09:29:51;21.90;1.00
10901;DHT22;5503;53.208;10.392;2023-07-24T09:32:19;21.80;1.00
10901;DHT22;5503;53.208;10.392;2023-07-24T09:34:47;21.70;1.00
10901;DHT22;5503;53.208;10.392;2023-07-24T09:37:26;21.80;1.00
10901;DHT22;5503;53.208;10.392;2023-07-24T09:39:53;21.80;1.00
10901;DHT22;5503;53.208;10.392;2023-07-24T09:42:37;21.90;1.00
10901;DHT22;5503;53.208;10.392;2023-07-24T09:45:07;21.70;1.00
10901;DHT22;5503;53.208;10.392;2023-07-24T09:47:34;21.70;1.00
10901;DHT22;5503;53.208;10.392;2023-07-24T09:50:03;21.60;1.00
10901;DHT22;5503;53.208;10.392;2023-07-24T09:52:31;21.60;1.00
10901;DHT22;5503;53.208;10.392;2023-07-24T09:55:07;21.70;1.00
10901;DHT22;5503;53.208;10.392;2023-07-24T09:57:36;21.70;1.00
10901;DHT22;5503;53.208;10.392;2023-07-24T10:00:04;21.70;1.00
10901;DHT22;5503;53.208;10.392;2023-07-24T10:02:33;21.80;1.00
10901;DHT22;5503;53.208;10.392;2023-07-24T10:05:00;22.00;1.00
10901;DHT22;5503;53.208;10.392;2023-07-24T10:07:28;22.00;1.00
10901;DHT22;5503;53.208;10.392;2023-07-24T10:09:57;22.20;1.00
10901;DHT22;5503;53.208;10.392;2023-07-24T10:12:25;22.30;1.00
10901;DHT22;5503;53.208;10.392;2023-07-24T10:14:58;22.20;1.00
10901;DHT22;5503;53.208;10.392;2023-07-24T10:17:35;22.10;1.00
10901;DHT22;5503;53.208;10.392;2023-07-24T10:20:04;22.10;1.00
10901;DHT22;5503;53.208;10.392;2023-07-24T10:22:31;22.20;1.00
10901;DHT22;5503;53.208;10.392;2023-07-24T10:25:02;22.20;1.00
10901;DHT22;5503;53.208;10.392;2023-07-24T10:27:30;22.30;1.00
10901;DHT22;5503;53.208;10.392;2023-07-24T10:30:03;22.50;1.00
10901;DHT22;5503;53.208;10.392;2023-07-24T10:32:31;22.50;1.00
10901;DHT22;5503;53.208;10.392;2023-07-24T10:35:07;22.70;1.00
10901;DHT22;5503;53.208;10.392;2023-07-24T10:37:37;19.20;1.00
10901;DHT22;5503;53.208;10.392;2023-07-24T10:40:05;22.80;1.00
10901;DHT22;5503;53.208;10.392;2023-07-24T10:42:35;23.10;1.00
10901;DHT22;5503;53.208;10.392;2023-07-24T10:45:06;23.10;1.00
10901;DHT22;5503;53.208;10.392;2023-07-24T10:47:34;23.10;1.00
10901;DHT22;5503;53.208;10.392;2023-07-24T10:50:02;23.50;1.00
10901;DHT22;5503;53.208;10.392;2023-07-24T10:52:29;23.40;1.00
10901;DHT22;5503;53.208;10.392;2023-07-24T10:55:00;23.40;1.00
10901;DHT22;5503;53.208;10.392;2023-07-24T10:57:29;23.50;1.00
10901;DHT22;5503;53.208;10.392;2023-07-24T10:59:56;23.40;1.00
10901;DHT22;5503;53.208;10.392;2023-07-24T11:02:24;23.30;1.00
10901;DHT22;5503;53.208;10.392;2023-07-24T11:04:52;23.30;1.00
10901;DHT22;5503;53.208;10.392;2023-07-24T11:07:19;23.30;1.00
10901;DHT22;5503;53.208;10.392;2023-07-24T11:09:50;23.20;1.00
10901;DHT22;5503;53.208;10.392;2023-07-24T11:12:19;23.00;1.00
10901;DHT22;5503;53.208;10.392;2023-07-24T11:14:49;23.00;1.00
10901;DHT22;5503;53.208;10.392;2023-07-24T11:17:16;22.90;1.00
10901;DHT22;5503;53.208;10.392;2023-07-24T11:19:45;22.90;1.00
10901;DHT22;5503;53.208;10.392;2023-07-24T11:22:14;23.00;1.00
10901;DHT22;5503;53.208;10.392;2023-07-24T11:24:43;22.90;1.00
10901;DHT22;5503;53.208;10.392;2023-07-24T11:27:14;23.00;1.00
10901;DHT22;5503;53.208;10.392;2023-07-24T11:29:41;23.00;1.00
10901;DHT22;5503;53.208;10.392;2023-07-24T11:32:08;22.90;1.00
10901;DHT22;5503;53.208;10.392;2023-07-24T11:34:36;22.80;1.00
10901;DHT22;5503;53.208;10.392;2023-07-24T11:37:05;22.80;1.00
10901;DHT22;5503;53.208;10.392;2023-07-24T11:39:33;22.60;1.00
10901;DHT22;5503;53.208;10.392;2023-07-24T11:42:01;22.40;1.00
10901;DHT22;5503;53.208;10.392;2023-07-24T11:44:28;22.50;1.00
10901;DHT22;5503;53.208;10.392;2023-07-24T11:47:02;22.70;1.00
10901;DHT22;5503;53.208;10.392;2023-07-24T11:49:30;23.10;1.00
10901;DHT22;5503;53.208;10.392;2023-07-24T11:52:02;23.50;1.00
10901;DHT22;5503;53.208;10.392;2023-07-24T11:54:34;23.50;1.00
10901;DHT22;5503;53.208;10.392;2023-07-24T11:57:01;23.80;1.00
10901;DHT22;5503;53.208;10.392;2023-07-24T11:59:28;24.10;1.00
10901;DHT22;5503;53.208;10.392;2023-07-24T12:02:04;24.20;1.00
10901;DHT22;5503;53.208;10.392;2023-07-24T12:04:32;24.30;1.00
10901;DHT22;5503;53.208;10.392;2023-07-24T12:06:59;24.70;1.00
10901;DHT22;5503;53.208;10.392;2023-07-24T12:09:31;24.80;1.00
10901;DHT22;5503;53.208;10.392;2023-07-24T12:11:58;24.90;1.00
10901;DHT22;5503;53.208;10.392;2023-07-24T12:14:26;25.10;1.00
10901;DHT22;5503;53.208;10.392;2023-07-24T12:17:00;25.20;1.00
10901;DHT22;5503;53.208;10.392;2023-07-24T12:19:27;25.40;1.00
10901;DHT22;5503;53.208;10.392;2023-07-24T12:21:54;25.40;1.00
10901;DHT22;5503;53.208;10.392;2023-07-24T12:24:21;25.30;1.00
10901;DHT22;5503;53.208;10.392;2023-07-24T12:26:50;25.50;1.00
10901;DHT22;5503;53.208;10.392;2023-07-24T12:29:19;25.70;1.00
10901;DHT22;5503;53.208;10.392;2023-07-24T12:31:46;25.80;1.00
10901;DHT22;5503;53.208;10.392;2023-07-24T12:34:13;25.80;1.00
10901;DHT22;5503;53.208;10.392;2023-07-24T12:36:40;25.70;1.00
10901;DHT22;5503;53.208;10.392;2023-07-24T12:39:07;25.70;1.00
10901;DHT22;5503;53.208;10.392;2023-07-24T12:41:34;25.80;1.00
10901;DHT22;5503;53.208;10.392;2023-07-24T12:44:02;25.60;1.00
10901;DHT22;5503;53.208;10.392;2023-07-24T12:46:30;25.60;1.00
10901;DHT22;5503;53.208;10.392;2023-07-24T12:48:57;25.60;1.00
10901;DHT22;5503;53.208;10.392;2023-07-24T12:51:24;25.90;1.00
10901;DHT22;5503;53.208;10.392;2023-07-24T12:53:51;26.10;1.00
10901;DHT22;5503;53.208;10.392;2023-07-24T12:56:18;26.10;1.00
10901;DHT22;5503;53.208;10.392;2023-07-24T12:58:45;26.20;1.00
10901;DHT22;5503;53.208;10.392;2023-07-24T13:01:13;26.30;1.00
10901;DHT22;5503;53.208;10.392;2023-07-24T13:03:40;26.20;1.00
10901;DHT22;5503;53.208;10.392;2023-07-24T13:06:07;26.20;1.00
10901;DHT22;5503;53.208;10.392;2023-07-24T13:08:34;25.60;1.00
10901;DHT22;5503;53.208;10.392;2023-07-24T13:11:01;25.60;1.00
10901;DHT22;5503;53.208;10.392;2023-07-24T13:13:28;25.40;1.00
10901;DHT22;5503;53.208;10.392;2023-07-24T13:15:56;25.40;1.00
10901;DHT22;5503;53.208;10.392;2023-07-24T13:18:24;25.50;1.00
10901;DHT22;5503;53.208;10.392;2023-07-24T13:20:53;25.90;1.00
10901;DHT22;5503;53.208;10.392;2023-07-24T13:23:21;26.10;1.00
10901;DHT22;5503;53.208;10.392;2023-07-24T13:25:47;26.10;1.00
10901;DHT22;5503;53.208;10.392;2023-07-24T13:28:16;26.10;1.00
10901;DHT22;5503;53.208;10.392;2023-07-24T13:30:43;26.10;1.00
10901;DHT22;5503;53.208;10.392;2023-07-24T13:33:10;26.10;1.00
10901;DHT22;5503;53.208;10.392;2023-07-24T13:35:39;26.10;1.00
10901;DHT22;5503;53.208;10.392;2023-07-24T13:38:06;26.20;1.00
10901;DHT22;5503;53.208;10.392;2023-07-24T13:40:34;26.20;1.00
10901;DHT22;5503;53.208;10.392;2023-07-24T13:43:02;26.20;1.00
10901;DHT22;5503;53.208;10.392;2023-07-24T13:45:29;26.40;1.00
10901;DHT22;5503;53.208;10.392;2023-07-24T13:47:57;26.50;1.00
10901;DHT22;5503;53.208;10.392;2023-07-24T13:50:24;26.30;1.00
10901;DHT22;5503;53.208;10.392;2023-07-24T13:52:53;26.20;1.00
10901;DHT22;5503;53.208;10.392;2023-07-24T13:55:20;26.30;1.00
10901;DHT22;5503;53.208;10.392;2023-07-24T13:57:47;26.20;1.00
10901;DHT22;5503;53.208;10.392;2023-07-24T14:00:15;26.10;1.00
10901;DHT22;5503;53.208;10.392;2023-07-24T14:02:42;26.20;1.00
10901;DHT22;5503;53.208;10.392;2023-07-24T14:05:09;26.00;1.00
10901;DHT22;5503;53.208;10.392;2023-07-24T14:07:36;26.00;1.00
10901;DHT22;5503;53.208;10.392;2023-07-24T14:10:05;26.00;1.00
10901;DHT22;5503;53.208;10.392;2023-07-24T14:12:32;26.00;1.00
10901;DHT22;5503;53.208;10.392;2023-07-24T14:15:00;26.00;1.00
10901;DHT22;5503;53.208;10.392;2023-07-24T14:17:27;26.10;1.00
10901;DHT22;5503;53.208;10.392;2023-07-24T14:19:54;26.20;1.00
10901;DHT22;5503;53.208;10.392;2023-07-24T14:22:21;26.20;1.00
10901;DHT22;5503;53.208;10.392;2023-07-24T14:24:48;24.80;1.00
10901;DHT22;5503;53.208;10.392;2023-07-24T14:27:17;25.90;1.00
10901;DHT22;5503;53.208;10.392;2023-07-24T14:29:44;25.90;1.00
10901;DHT22;5503;53.208;10.392;2023-07-24T14:32:11;26.10;1.00
10901;DHT22;5503;53.208;10.392;2023-07-24T14:34:38;26.20;1.00
10901;DHT22;5503;53.208;10.392;2023-07-24T14:37:05;25.90;1.00
10901;DHT22;5503;53.208;10.392;2023-07-24T14:39:32;25.60;1.00
10901;DHT22;5503;53.208;10.392;2023-07-24T14:42:00;25.60;1.00
10901;DHT22;5503;53.208;10.392;2023-07-24T14:44:28;25.60;1.00
10901;DHT22;5503;53.208;10.392;2023-07-24T14:46:55;25.60;1.00
10901;DHT22;5503;53.208;10.392;2023-07-24T14:49:22;25.60;1.00
10901;DHT22;5503;53.208;10.392;2023-07-24T14:51:50;25.40;1.00
10901;DHT22;5503;53.208;10.392;2023-07-24T14:54:17;25.10;1.00
10901;DHT22;5503;53.208;10.392;2023-07-24T14:56:44;25.00;1.00
10901;DHT22;5503;53.208;10.392;2023-07-24T14:59:11;23.60;1.00
10901;DHT22;5503;53.208;10.392;2023-07-24T15:01:40;25.00;1.00
10901;DHT22;5503;53.208;10.392;2023-07-24T15:04:07;25.10;1.00
10901;DHT22;5503;53.208;10.392;2023-07-24T15:06:34;25.30;1.00
10901;DHT22;5503;53.208;10.392;2023-07-24T15:09:01;25.40;1.00
10901;DHT22;5503;53.208;10.392;2023-07-24T15:11:28;25.50;1.00
10901;DHT22;5503;53.208;10.392;2023-07-24T15:13:55;25.50;1.00
10901;DHT22;5503;53.208;10.392;2023-07-24T15:16:22;25.40;1.00
10901;DHT22;5503;53.208;10.392;2023-07-24T15:18:51;25.40;1.00
10901;DHT22;5503;53.208;10.392;2023-07-24T15:21:18;25.30;1.00
10901;DHT22;5503;53.208;10.392;2023-07-24T15:23:45;25.20;1.00
10901;DHT22;5503;53.208;10.392;2023-07-24T15:26:17;25.20;1.00
10901;DHT22;5503;53.208;10.392;2023-07-24T15:28:44;25.30;1.00
10901;DHT22;5503;53.208;10.392;2023-07-24T15:31:11;23.00;1.00
10901;DHT22;5503;53.208;10.392;2023-07-24T15:33:38;25.20;1.00
10901;DHT22;5503;53.208;10.392;2023-07-24T15:36:06;25.30;1.00
10901;DHT22;5503;53.208;10.392;2023-07-24T15:38:33;25.00;1.00
10901;DHT22;5503;53.208;10.392;2023-07-24T15:41:01;25.10;1.00
10901;DHT22;5503;53.208;10.392;2023-07-24T15:43:28;25.00;1.00
10901;DHT22;5503;53.208;10.392;2023-07-24T15:45:55;25.00;1.00
10901;DHT22;5503;53.208;10.392;2023-07-24T15:48:22;25.00;1.00
10901;DHT22;5503;53.208;10.392;2023-07-24T15:50:49;24.80;1.00